This is the latest recevied weather packets stored in our database for station/object DL2RXE-13. If no packets are shown the sender has not sent any weather packets the latest 10 day(s).
| Time | Temp. | Humidity | Pressure | Rain* | Wind** | Luminosity | Snow |
|---|---|---|---|---|---|---|---|
| 1777976429 | 15.56° C | 88% | 1009.7 hPa | 0 mm | - | 78 W/m² | - |
| 1777972230 | 15.56° C | 87% | 1009.7 hPa | 0 mm | - | 95 W/m² | - |
| 1777970467 | 15.56° C | 85% | 1009.8 hPa | 0 mm | - | 56 W/m² | - |
| 1777967467 | 15° C | 89% | 1010 hPa | 0 mm | - | 164 W/m² | - |
| 1777963862 | 13.89° C | 90% | 1010.1 hPa | 0 mm | - | 52 W/m² | - |
| 1777947631 | 13.89° C | 84% | 1010.9 hPa | 0 mm | - | 0 W/m² | - |
| 1777945829 | 14.44° C | 83% | 1010.9 hPa | 0 mm | - | 0 W/m² | - |
| 1777938029 | 13.89° C | 86% | 1011.9 hPa | 0 mm | - | 0 W/m² | - |
| 1777937429 | 13.89° C | 85% | 1011.7 hPa | 0 mm | - | 0 W/m² | - |
| 1777932030 | 13.89° C | 85% | 1012.3 hPa | 0 mm | - | 0 W/m² | - |
| 1777926691 | 15.56° C | 79% | 1012.5 hPa | 0 mm | - | 0 W/m² | - |
| 1777922443 | 16.67° C | 73% | 1012.2 hPa | 0 mm | - | 0 W/m² | - |
| 1777921867 | 16.67° C | 76% | 1012 hPa | 0 mm | - | 0 W/m² | - |
| 1777917043 | 20° C | 63% | 1011.9 hPa | 0 mm | - | 24 W/m² | - |
| 1777915850 | 21.11° C | 60% | 1012 hPa | 0 mm | - | 49 W/m² | - |
| 1777915282 | 21.11° C | 56% | 1012 hPa | 0 mm | - | 63 W/m² | - |
| 1777912251 | 21.67° C | 54% | 1011.8 hPa | 0 mm | - | 114 W/m² | - |
| 1777904430 | 22.22° C | 53% | 1012.7 hPa | 0 mm | - | 244 W/m² | - |
| 1777899629 | 22.78° C | 53% | 1013 hPa | 0 mm | - | 515 W/m² | - |
| 1777893030 | 21.11° C | 59% | 1013.4 hPa | 0 mm | - | 585 W/m² | - |
| 1777885229 | 18.89° C | 66% | 1014 hPa | 0 mm | - | 435 W/m² | - |
| 1777883430 | 18.89° C | 67% | 1014.1 hPa | 0 mm | - | 538 W/m² | - |
| 1777878029 | 17.22° C | 73% | 1013.3 hPa | 0 mm | - | 287 W/m² | - |
| 1777875030 | 15° C | 82% | 1013.1 hPa | 0 mm | - | 134 W/m² | - |
| 1777873229 | 14.44° C | 83% | 1012.9 hPa | 0 mm | - | 63 W/m² | - |
* Rain latest hour (hover to see other rain measurements)
** Current wind speed in m/s (hover to see current wind gust speed)